Allston, Massachusetts
Current Conditions -  °F | °C
As of 7:54 PM on Wednesday 22 Oct 2014 (Local Time) from KBOS Reporting Station
Moderate Rain Moderate Rain  
Wind Chill: 11°   Ceiling: 700
Heat Index: 11°   Visibility: 2mi
Dew Point: 10°   Wind: 32mph
Humidity: 93%   Direction: 40°NE
Pressure: 29.85"   Gusts: 45mph
Location:  42.36°N, 71.13°W
Report Text: KBOS 222354Z 04028G39KT 2SM RA BR OVC007 11/10 A2985 RMK AO2 PK WND 03042/2300 RAE30B50DZB36E50 SLP108 P0001 60008 T01110100 10111 20100 56006
Loading
Personal Weather Stations






























Interactive Weather Map
Tropical Storm Tracking
New forecast layout! Learn more

10-Day Weather Forecast

Advertisements
Track Severe Weather on mobile